Time;durP1;ratioP1;P1;durP2;ratioP2;P2;SDS_P1;SDS_P2;PMS_P1;PMS_P2;Temp;Humidity;BMP_temperature;BMP_pressure;BME280_temperature;BME280_humidity;BME280_pressure;Samples;Min_cycle;Max_cycle;Signal;HPM_P1;HPM_P2
2022/06/22 04:53:49;;;;;;;1.72;1.22;;;;;;;14.10;71.00;98634.75;1646065;82;21119;-51
2022/06/22 04:56:19;;;;;;;1.52;1.42;;;;;;;14.11;71.24;98623.30;1681663;83;21044;-44
2022/06/22 04:58:50;;;;;;;4.08;2.22;;;;;;;14.13;71.03;98619.29;1706084;82;21109;-44
2022/06/22 05:01:30;;;;;;;4.67;1.50;;;;;;;14.17;71.49;98622.66;1691060;83;21036;-43
2022/06/22 05:04:00;;;;;;;6.05;1.30;;;;;;;14.20;71.29;98623.38;1691648;83;21053;-43
2022/06/22 05:06:33;;;;;;;2.45;1.60;;;;;;;14.22;71.20;98623.33;1689565;84;21081;-44
2022/06/22 05:09:05;;;;;;;1.30;1.20;;;;;;;14.26;71.06;98630.16;1702300;82;21609;-43
2022/06/22 05:11:40;;;;;;;4.10;1.52;;;;;;;14.31;70.52;98619.84;1710170;84;21035;-52
2022/06/22 05:14:15;;;;;;;4.08;1.45;;;;;;;14.33;70.20;98622.44;1694220;84;21079;-44
2022/06/22 05:16:42;;;;;;;4.55;1.72;;;;;;;14.33;69.98;98623.75;1698651;82;21177;-52
2022/06/22 05:19:11;;;;;;;9.43;2.37;;;;;;;14.34;69.77;98624.98;1685291;84;20978;-42
2022/06/22 05:21:45;;;;;;;3.75;1.52;;;;;;;14.32;69.75;98631.22;1707403;82;21504;-52
2022/06/22 05:24:29;;;;;;;1.62;1.50;;;;;;;14.31;70.51;98622.47;1705640;82;21448;-43
2022/06/22 05:26:57;;;;;;;3.30;2.02;;;;;;;14.36;70.65;98619.19;1697857;84;21069;-50
2022/06/22 05:29:35;;;;;;;1.75;1.50;;;;;;;14.43;70.83;98617.62;1699183;84;21499;-50
2022/06/22 05:32:05;;;;;;;3.83;1.62;;;;;;;14.52;70.67;98612.02;1711334;82;21071;-50
2022/06/22 05:34:34;;;;;;;2.02;1.55;;;;;;;14.60;69.99;98613.38;1707569;82;21025;-42
2022/06/22 05:37:24;;;;;;;2.40;1.45;;;;;;;14.62;69.73;98611.56;1680857;84;21458;-50
2022/06/22 05:39:51;;;;;;;8.23;1.22;;;;;;;14.60;69.85;98611.22;1705446;82;21418;-50
2022/06/22 05:42:18;;;;;;;3.42;1.98;;;;;;;14.57;70.51;98614.00;1703878;82;21026;-50
2022/06/22 05:51:25;;;;;;;2.85;1.55;;;;;;;14.59;70.97;98600.30;1768620;79;22446;-41
2022/06/22 05:54:03;;;;;;;4.03;1.20;;;;;;;14.59;71.10;98600.30;1716635;82;21042;-41
2022/06/22 05:56:53;;;;;;;1.95;1.07;;;;;;;14.59;71.57;98601.61;1713325;81;20977;-43
2022/06/22 05:59:37;;;;;;;1.98;1.35;;;;;;;14.58;72.29;98591.55;1713250;82;21421;-42
2022/06/22 06:02:18;;;;;;;7.75;1.37;;;;;;;14.54;73.04;98579.44;1719667;81;21569;-50
2022/06/22 06:05:19;;;;;;;2.77;1.77;;;;;;;14.52;73.80;98583.07;1717362;81;21072;-50
2022/06/22 06:07:52;;;;;;;4.65;1.30;;;;;;;14.48;75.77;98592.86;1713981;82;21062;-51
2022/06/22 06:10:30;;;;;;;2.80;1.10;;;;;;;14.34;75.64;98591.25;1713365;82;21065;-51
2022/06/22 06:13:30;;;;;;;3.27;1.40;;;;;;;14.23;77.27;98596.95;1711106;82;21372;-51
2022/06/22 06:16:00;;;;;;;2.15;1.27;;;;;;;14.09;77.83;98594.06;1711945;81;21084;-51
2022/06/22 06:18:30;;;;;;;4.40;1.50;;;;;;;13.91;78.60;98592.16;1714944;82;21084;-52
2022/06/22 06:21:10;;;;;;;3.58;1.72;;;;;;;13.75;79.96;98586.68;1722699;82;21009;-52
2022/06/22 06:23:53;;;;;;;3.83;1.60;;;;;;;13.67;81.39;98588.73;1715868;81;21055;-52
2022/06/22 06:30:00;;;;;;;3.70;1.65;;;;;;;13.62;83.07;98590.68;1714454;82;20969;-45
2022/06/22 06:32:59;;;;;;;5.47;1.42;;;;;;;13.58;83.21;98593.45;1708804;82;21067;-43
2022/06/22 06:35:56;;;;;;;2.60;1.27;;;;;;;13.56;83.52;98602.28;1709297;81;21663;-52
2022/06/22 06:38:31;;;;;;;1.52;1.32;;;;;;;13.53;83.38;98591.91;1706634;82;21152;-52
2022/06/22 06:41:18;;;;;;;3.10;1.60;;;;;;;13.55;83.18;98603.20;1711998;82;21344;-51
2022/06/22 06:43:49;;;;;;;1.87;1.20;;;;;;;13.57;82.95;98591.74;1705881;83;21537;-44
2022/06/22 06:46:21;;;;;;;1.60;1.12;;;;;;;13.60;82.56;98593.84;1690415;83;21489;-45
2022/06/22 06:48:53;;;;;;;1.87;1.12;;;;;;;13.63;83.00;98586.70;1715901;82;21087;-52
2022/06/22 06:51:19;;;;;;;2.72;1.30;;;;;;;13.70;83.78;98585.54;1704942;83;21038;-44
2022/06/22 06:53:57;;;;;;;2.47;1.20;;;;;;;13.81;83.32;98592.54;1695049;83;21058;-44
2022/06/22 06:56:53;;;;;;;6.45;1.55;;;;;;;13.93;82.33;98585.08;1704262;84;21497;-53
2022/06/22 06:59:24;;;;;;;2.42;1.40;;;;;;;14.04;83.18;98576.30;1687870;83;21055;-57
2022/06/22 07:01:50;;;;;;;2.40;1.27;;;;;;;14.18;83.34;98591.03;1700475;82;21069;-54
2022/06/22 07:04:32;;;;;;;3.90;1.30;;;;;;;14.25;81.68;98574.53;1705741;82;21002;-44
2022/06/22 07:14:44;;;;;;;1.62;0.90;;;;;;;14.04;83.12;98571.04;1798726;79;22303;-52
2022/06/22 07:17:14;;;;;;;1.40;1.05;;;;;;;13.93;84.64;98574.56;1741208;80;21525;-52
2022/06/22 07:19:48;;;;;;;2.02;0.98;;;;;;;13.92;85.74;98580.28;1723880;83;21476;-43
2022/06/22 07:22:23;;;;;;;7.50;1.50;;;;;;;13.93;86.29;98574.10;1697120;82;21044;-44
2022/06/22 07:25:02;;;;;;;2.87;1.10;;;;;;;13.99;86.54;98573.84;1695280;84;20996;-44
2022/06/22 07:27:49;;;;;;;1.22;1.05;;;;;;;14.09;84.98;98565.13;1703841;81;21067;-43
2022/06/22 07:30:35;;;;;;;3.42;0.82;;;;;;;14.18;84.75;98575.72;1661342;85;20983;-44
2022/06/22 07:33:19;;;;;;;3.05;1.05;;;;;;;14.24;83.22;98568.42;1676768;85;21046;-52
2022/06/22 07:36:03;;;;;;;4.12;1.87;;;;;;;14.36;83.55;98556.06;1684732;85;21375;-52
2022/06/22 07:38:57;;;;;;;2.10;1.42;;;;;;;14.61;82.83;98548.44;1684385;85;21651;-52
2022/06/22 07:41:23;;;;;;;4.03;1.10;;;;;;;14.86;82.79;98548.23;1677603;85;21897;-43
2022/06/22 07:44:18;;;;;;;7.40;1.40;;;;;;;15.10;79.95;98533.94;1681346;85;21521;-52
2022/06/22 07:47:00;;;;;;;1.27;0.80;;;;;;;15.33;77.33;98535.50;1652092;86;21037;-52
2022/06/22 07:49:51;;;;;;;3.50;0.78;;;;;;;15.67;75.88;98532.61;1642015;86;21057;-43
2022/06/22 07:52:21;;;;;;;1.67;0.90;;;;;;;15.91;73.11;98522.17;1637892;86;21081;-45
2022/06/22 07:54:53;;;;;;;1.57;0.80;;;;;;;15.92;72.27;98521.24;1641657;85;21451;-45
2022/06/22 07:57:43;;;;;;;4.85;0.95;;;;;;;15.84;73.78;98527.38;1686577;84;21201;-54
2022/06/22 08:00:16;;;;;;;4.50;0.80;;;;;;;15.74;77.20;98548.98;1695017;83;21546;-45
2022/06/22 08:02:57;;;;;;;5.20;1.60;;;;;;;15.26;80.09;98548.58;1685080;83;21049;-54
2022/06/22 08:05:28;;;;;;;2.90;0.98;;;;;;;14.67;83.07;98560.05;1676292;84;21452;-55
2022/06/22 08:08:02;;;;;;;2.62;0.90;;;;;;;14.24;86.31;98562.30;1692209;83;21073;-55
2022/06/22 08:10:58;;;;;;;1.15;0.82;;;;;;;13.99;88.29;98565.11;1686695;84;21001;-44
2022/06/22 08:13:29;;;;;;;3.33;0.90;;;;;;;13.81;89.87;98563.62;1688436;83;21100;-55
2022/06/22 08:16:10;;;;;;;0.98;0.90;;;;;;;13.70;91.70;98567.61;1665926;83;21024;-45
2022/06/22 08:18:37;;;;;;;4.12;0.72;;;;;;;13.63;92.65;98564.38;1693732;83;21097;-54
2022/06/22 08:21:04;;;;;;;0.50;0.50;;;;;;;13.63;94.47;98568.77;1687159;84;21024;-45
2022/06/22 08:23:34;;;;;;;2.90;0.70;;;;;;;13.64;96.46;98574.42;1695684;83;21093;-45
2022/06/22 08:26:04;;;;;;;1.02;0.60;;;;;;;13.62;96.51;98590.68;1707440;83;21037;-54
2022/06/22 08:28:34;;;;;;;0.78;0.60;;;;;;;13.57;97.05;98586.95;1710793;82;21089;-45
2022/06/22 08:31:00;;;;;;;1.07;0.42;;;;;;;13.51;96.89;98583.22;1704189;82;21021;-54
2022/06/22 08:33:33;;;;;;;0.30;0.30;;;;;;;13.45;95.58;98571.20;1664985;85;21568;-54
2022/06/22 08:36:11;;;;;;;1.87;0.40;;;;;;;13.41;94.18;98568.75;1716990;83;21618;-54
2022/06/22 08:38:52;;;;;;;1.20;0.55;;;;;;;13.40;93.27;98569.67;1717242;83;21057;-54
2022/06/22 08:41:42;;;;;;;1.17;0.45;;;;;;;13.42;93.53;98567.83;1717304;82;21537;-43
2022/06/22 08:44:41;;;;;;;2.12;0.47;;;;;;;13.49;94.58;98558.78;1717223;83;21080;-45
2022/06/22 08:47:16;;;;;;;0.80;0.40;;;;;;;13.61;96.12;98559.61;1716833;83;21053;-43
2022/06/22 08:50:13;;;;;;;2.08;0.57;;;;;;;13.77;94.71;98560.72;1716587;83;20998;-53
2022/06/22 08:53:04;;;;;;;1.35;0.40;;;;;;;13.90;93.46;98557.59;1717100;83;21565;-45
2022/06/22 08:55:53;;;;;;;1.47;0.30;;;;;;;14.05;93.77;98553.87;1717438;83;21029;-53
2022/06/22 08:58:25;;;;;;;2.10;0.40;;;;;;;14.27;93.16;98555.16;1708902;83;21569;-45
2022/06/22 09:01:06;;;;;;;0.25;0.25;;;;;;;14.52;90.13;98554.13;1678807;83;21021;-54
2022/06/22 09:03:51;;;;;;;0.57;0.30;;;;;;;14.75;89.47;98543.91;1713529;82;21020;-44
2022/06/22 09:07:00;;;;;;;1.25;0.47;;;;;;;15.02;88.48;98537.40;1706898;83;21552;-54
2022/06/22 09:09:50;;;;;;;0.30;0.30;;;;;;;15.32;88.86;98535.12;1713095;83;21068;-45
2022/06/22 09:12:51;;;;;;;0.40;0.40;;;;;;;15.66;86.53;98533.55;1717783;83;21580;-54
2022/06/22 09:16:00;;;;;;;0.33;0.30;;;;;;;15.93;81.59;98532.64;1716612;83;21080;-44
2022/06/22 09:18:53;;;;;;;0.40;0.40;;;;;;;16.13;81.73;98531.66;1699891;83;21027;-45
2022/06/22 09:21:40;;;;;;;0.75;0.40;;;;;;;16.27;80.98;98526.53;1652425;85;21486;-45
2022/06/22 09:24:24;;;;;;;0.40;0.40;;;;;;;16.32;77.99;98525.83;1652477;86;21022;-54
2022/06/22 09:27:02;;;;;;;0.50;0.50;;;;;;;16.33;76.36;98531.48;1653222;85;21132;-54
2022/06/22 09:29:46;;;;;;;0.50;0.50;;;;;;;16.35;75.89;98537.56;1666431;84;21038;-45
2022/06/22 09:32:42;;;;;;;0.42;0.30;;;;;;;16.29;75.60;98542.27;1624090;86;21045;-54
2022/06/22 09:36:00;;;;;;;0.82;0.40;;;;;;;16.07;75.91;98541.20;1660025;85;21033;-54
2022/06/22 09:39:22;;;;;;;0.35;0.30;;;;;;;15.83;77.56;98541.92;1661751;85;21129;-53
2022/06/22 09:42:00;;;;;;;6.00;0.40;;;;;;;15.57;80.10;98540.53;1663604;85;21568;-44
2022/06/22 09:44:54;;;;;;;0.80;0.35;;;;;;;15.49;82.30;98551.92;1668953;85;21085;-53
2022/06/22 09:47:41;;;;;;;1.95;0.35;;;;;;;15.54;83.92;98533.64;1674156;85;21045;-53
2022/06/22 09:50:48;;;;;;;0.40;0.40;;;;;;;15.74;86.24;98525.26;1672897;85;21021;-53
2022/06/22 09:53:32;;;;;;;0.95;0.72;;;;;;;15.97;84.71;98528.94;1673723;85;21029;-53
2022/06/22 09:56:25;;;;;;;0.40;0.40;;;;;;;16.15;79.39;98532.43;1702652;83;21005;-45
2022/06/22 09:59:47;;;;;;;;;;;;;;;16.23;78.29;98514.41;1719128;83;21029;-54
2022/06/22 10:02:54;;;;;;;4.05;0.40;;;;;;;16.27;77.63;98520.40;1716350;83;20097;-44
2022/06/22 10:05:32;;;;;;;0.62;0.40;;;;;;;16.26;79.48;98535.38;1715523;83;21010;-44
2022/06/22 10:08:27;;;;;;;0.62;0.55;;;;;;;16.27;81.58;98533.12;1716766;83;21569;-53
2022/06/22 10:11:22;;;;;;;2.00;0.50;;;;;;;16.32;79.93;98527.16;1716602;83;21057;-45
2022/06/22 10:14:24;;;;;;;0.30;0.30;;;;;;;16.43;81.84;98517.37;1660654;86;21045;-44
2022/06/22 10:17:21;;;;;;;0.20;0.20;;;;;;;16.65;79.72;98512.67;1662215;86;21180;-53
2022/06/22 10:20:14;;;;;;;0.10;0.10;;;;;;;16.91;72.58;98515.73;1664520;86;21028;-53
2022/06/22 10:23:06;;;;;;;0.45;0.30;;;;;;;17.12;68.85;98519.86;1689674;83;21044;-44
2022/06/22 10:25:59;;;;;;;1.23;0.20;;;;;;;17.36;66.96;98515.02;1693696;85;21123;-53
2022/06/22 10:28:42;;;;;;;0.20;0.20;;;;;;;17.59;63.76;98523.45;1693811;83;21115;-44
2022/06/22 10:31:31;;;;;;;0.10;0.10;;;;;;;17.80;63.44;98526.23;1693050;85;21107;-53
2022/06/22 10:34:27;;;;;;;0.30;0.20;;;;;;;18.04;64.53;98518.67;1693444;85;21012;-45
2022/06/22 10:37:28;;;;;;;0.20;0.20;;;;;;;18.34;62.04;98530.09;1693441;83;21143;-45
2022/06/22 10:47:16;;;;;;;1.22;0.15;;;;;;;18.46;54.87;98540.42;1693670;83;21658;-53
2022/06/22 10:50:10;;;;;;;0.20;0.20;;;;;;;18.41;56.40;98535.02;1693783;85;21090;-46
2022/06/22 10:53:14;;;;;;;0.13;0.13;;;;;;;18.39;56.46;98535.59;1722783;82;21071;-44
2022/06/22 10:56:13;;;;;;;0.35;0.10;;;;;;;18.49;58.77;98530.95;1717545;83;21117;-52
2022/06/22 10:58:51;;;;;;;0.35;0.30;;;;;;;18.60;54.79;98543.08;1721073;82;21015;-53
2022/06/22 11:01:51;;;;;;;0.25;0.20;;;;;;;18.64;55.73;98544.23;1698200;83;21602;-44
2022/06/22 11:04:47;;;;;;;0.30;0.20;;;;;;;18.72;55.17;98540.19;1720159;83;21055;-45
2022/06/22 11:07:28;;;;;;;3.83;0.30;;;;;;;18.72;55.99;98538.02;1658203;85;21096;-52
2022/06/22 11:10:12;;;;;;;0.20;0.20;;;;;;;18.47;55.86;98538.14;1706750;83;21036;-52
2022/06/22 11:13:07;;;;;;;1.55;0.20;;;;;;;18.24;57.15;98550.57;1633892;86;21069;-45
2022/06/22 11:16:23;;;;;;;1.30;0.33;;;;;;;18.00;59.10;98556.35;1593137;89;21029;-52
2022/06/22 11:19:36;;;;;;;0.20;0.20;;;;;;;17.82;59.12;98560.05;1591456;90;21648;-53
2022/06/22 11:22:24;;;;;;;0.20;0.20;;;;;;;17.60;59.40;98561.70;1594911;90;21077;-44
2022/06/22 11:31:52;;;;;;;0.20;0.20;;;;;;;17.50;61.27;98565.78;1591811;90;21083;-44
2022/06/22 11:34:46;;;;;;;0.30;0.30;;;;;;;17.56;57.50;98582.63;1591793;90;21103;-53
2022/06/22 11:37:42;;;;;;;0.35;0.20;;;;;;;17.58;57.42;98582.09;1591666;90;21110;-45
2022/06/22 11:40:23;;;;;;;1.75;0.20;;;;;;;17.64;59.01;98575.61;1591950;90;21623;-52
2022/06/22 11:43:11;;;;;;;1.37;0.37;;;;;;;17.69;58.50;98574.41;1591543;90;21619;-53
2022/06/22 11:46:07;;;;;;;2.02;0.50;;;;;;;17.66;57.47;98573.25;1591911;90;21080;-44
2022/06/22 11:48:46;;;;;;;0.42;0.20;;;;;;;17.50;55.85;98573.24;1591812;90;21124;-44
2022/06/22 11:51:38;;;;;;;0.98;0.20;;;;;;;17.27;55.66;98577.61;1669970;83;21165;-53
2022/06/22 11:54:43;;;;;;;0.20;0.20;;;;;;;17.01;56.12;98575.92;1726851;83;21512;-52
2022/06/22 11:57:50;;;;;;;0.30;0.30;;;;;;;16.80;58.48;98573.08;1713152;84;21078;-53
2022/06/22 12:00:34;;;;;;;0.35;0.35;;;;;;;16.61;60.30;98578.44;1713672;83;21024;-52
2022/06/22 12:03:35;;;;;;;0.17;0.17;;;;;;;16.49;61.93;98584.35;1683149;85;21084;-52
2022/06/22 12:06:20;;;;;;;0.80;0.50;;;;;;;16.40;63.14;98588.77;1720913;83;21560;-44
2022/06/22 12:09:01;;;;;;;0.65;0.50;;;;;;;16.36;63.68;98594.69;1725430;83;21056;-51
2022/06/22 12:12:06;;;;;;;2.15;0.30;;;;;;;16.33;63.70;98604.06;1725353;83;21650;-45
